sensor_id;sensor_type;location;lat;lon;timestamp;P1;durP1;ratioP1;P2;durP2;ratioP2
37785;SDS011;23625;48.784;9.336;2023-08-31T00:01:38;9.50;;;3.00;;
37785;SDS011;23625;48.784;9.336;2023-08-31T00:04:04;5.15;;;2.80;;
37785;SDS011;23625;48.784;9.336;2023-08-31T00:06:32;10.55;;;2.67;;
37785;SDS011;23625;48.784;9.336;2023-08-31T00:08:58;7.90;;;2.40;;
37785;SDS011;23625;48.784;9.336;2023-08-31T00:11:24;6.28;;;2.30;;
37785;SDS011;23625;48.784;9.336;2023-08-31T00:13:51;5.63;;;2.60;;
37785;SDS011;23625;48.784;9.336;2023-08-31T00:16:17;5.90;;;2.67;;
37785;SDS011;23625;48.784;9.336;2023-08-31T00:18:44;8.07;;;2.67;;
37785;SDS011;23625;48.784;9.336;2023-08-31T00:21:10;6.43;;;2.33;;
37785;SDS011;23625;48.784;9.336;2023-08-31T00:23:36;6.07;;;3.78;;
37785;SDS011;23625;48.784;9.336;2023-08-31T00:26:02;7.45;;;2.95;;
37785;SDS011;23625;48.784;9.336;2023-08-31T00:28:28;5.35;;;2.28;;
37785;SDS011;23625;48.784;9.336;2023-08-31T00:30:53;12.80;;;2.60;;
37785;SDS011;23625;48.784;9.336;2023-08-31T00:33:19;8.70;;;3.00;;
37785;SDS011;23625;48.784;9.336;2023-08-31T00:35:45;7.35;;;2.20;;
37785;SDS011;23625;48.784;9.336;2023-08-31T00:38:11;7.53;;;2.60;;
37785;SDS011;23625;48.784;9.336;2023-08-31T00:40:41;5.43;;;1.98;;
37785;SDS011;23625;48.784;9.336;2023-08-31T00:43:09;6.03;;;2.20;;
37785;SDS011;23625;48.784;9.336;2023-08-31T00:45:35;4.18;;;2.58;;
37785;SDS011;23625;48.784;9.336;2023-08-31T00:48:02;8.45;;;2.35;;
37785;SDS011;23625;48.784;9.336;2023-08-31T00:50:27;7.03;;;2.50;;
37785;SDS011;23625;48.784;9.336;2023-08-31T00:52:53;7.47;;;2.40;;
37785;SDS011;23625;48.784;9.336;2023-08-31T00:55:19;6.60;;;2.22;;
37785;SDS011;23625;48.784;9.336;2023-08-31T00:57:44;7.32;;;2.47;;
37785;SDS011;23625;48.784;9.336;2023-08-31T01:00:10;6.25;;;2.30;;
37785;SDS011;23625;48.784;9.336;2023-08-31T01:02:40;6.28;;;2.80;;
37785;SDS011;23625;48.784;9.336;2023-08-31T01:13:13;4.45;;;2.85;;
37785;SDS011;23625;48.784;9.336;2023-08-31T01:15:44;6.05;;;2.47;;
37785;SDS011;23625;48.784;9.336;2023-08-31T01:18:11;5.03;;;2.55;;
37785;SDS011;23625;48.784;9.336;2023-08-31T01:21:03;7.35;;;2.65;;
37785;SDS011;23625;48.784;9.336;2023-08-31T01:23:46;4.53;;;2.70;;
37785;SDS011;23625;48.784;9.336;2023-08-31T01:26:20;6.03;;;2.65;;
37785;SDS011;23625;48.784;9.336;2023-08-31T01:28:46;7.13;;;2.50;;
37785;SDS011;23625;48.784;9.336;2023-08-31T01:31:12;7.72;;;2.38;;
37785;SDS011;23625;48.784;9.336;2023-08-31T01:33:39;7.65;;;3.08;;
37785;SDS011;23625;48.784;9.336;2023-08-31T01:36:06;4.93;;;3.10;;
37785;SDS011;23625;48.784;9.336;2023-08-31T01:38:37;5.45;;;3.35;;
37785;SDS011;23625;48.784;9.336;2023-08-31T01:41:06;7.13;;;2.80;;
37785;SDS011;23625;48.784;9.336;2023-08-31T01:43:35;5.43;;;2.70;;
37785;SDS011;23625;48.784;9.336;2023-08-31T01:46:02;9.73;;;3.00;;
37785;SDS011;23625;48.784;9.336;2023-08-31T01:48:28;12.30;;;2.80;;
37785;SDS011;23625;48.784;9.336;2023-08-31T01:50:54;5.80;;;3.10;;
37785;SDS011;23625;48.784;9.336;2023-08-31T01:53:20;16.80;;;3.47;;
37785;SDS011;23625;48.784;9.336;2023-08-31T01:55:45;7.05;;;3.45;;
37785;SDS011;23625;48.784;9.336;2023-08-31T01:58:11;7.18;;;2.92;;
37785;SDS011;23625;48.784;9.336;2023-08-31T02:00:36;9.27;;;3.15;;
37785;SDS011;23625;48.784;9.336;2023-08-31T02:03:03;8.00;;;3.22;;
37785;SDS011;23625;48.784;9.336;2023-08-31T02:05:29;8.98;;;3.75;;
37785;SDS011;23625;48.784;9.336;2023-08-31T02:07:55;7.60;;;3.67;;
37785;SDS011;23625;48.784;9.336;2023-08-31T02:10:20;8.88;;;3.70;;
37785;SDS011;23625;48.784;9.336;2023-08-31T02:12:46;5.57;;;3.05;;
37785;SDS011;23625;48.784;9.336;2023-08-31T02:15:12;9.95;;;3.28;;
37785;SDS011;23625;48.784;9.336;2023-08-31T02:17:37;9.73;;;4.50;;
37785;SDS011;23625;48.784;9.336;2023-08-31T02:20:03;6.35;;;3.40;;
37785;SDS011;23625;48.784;9.336;2023-08-31T02:22:33;7.50;;;3.22;;
37785;SDS011;23625;48.784;9.336;2023-08-31T02:25:00;5.32;;;2.85;;
37785;SDS011;23625;48.784;9.336;2023-08-31T02:27:26;7.90;;;3.40;;
37785;SDS011;23625;48.784;9.336;2023-08-31T02:29:52;6.05;;;3.00;;
37785;SDS011;23625;48.784;9.336;2023-08-31T02:32:17;7.82;;;2.63;;
37785;SDS011;23625;48.784;9.336;2023-08-31T02:34:43;6.72;;;3.60;;
37785;SDS011;23625;48.784;9.336;2023-08-31T02:37:08;6.88;;;2.97;;
37785;SDS011;23625;48.784;9.336;2023-08-31T02:39:34;3.72;;;2.58;;
37785;SDS011;23625;48.784;9.336;2023-08-31T02:41:59;10.63;;;3.83;;
37785;SDS011;23625;48.784;9.336;2023-08-31T02:44:25;4.28;;;2.63;;
37785;SDS011;23625;48.784;9.336;2023-08-31T02:46:51;11.15;;;2.60;;
37785;SDS011;23625;48.784;9.336;2023-08-31T02:49:16;8.23;;;2.45;;
37785;SDS011;23625;48.784;9.336;2023-08-31T02:51:42;8.98;;;3.05;;
37785;SDS011;23625;48.784;9.336;2023-08-31T02:54:07;7.85;;;2.85;;
37785;SDS011;23625;48.784;9.336;2023-08-31T02:56:33;6.10;;;3.17;;
37785;SDS011;23625;48.784;9.336;2023-08-31T02:58:59;6.95;;;2.60;;
37785;SDS011;23625;48.784;9.336;2023-08-31T03:01:24;10.18;;;3.65;;
37785;SDS011;23625;48.784;9.336;2023-08-31T03:03:50;6.03;;;2.92;;
37785;SDS011;23625;48.784;9.336;2023-08-31T03:06:16;4.38;;;2.40;;
37785;SDS011;23625;48.784;9.336;2023-08-31T03:08:42;13.38;;;2.58;;
37785;SDS011;23625;48.784;9.336;2023-08-31T03:11:08;6.07;;;2.72;;
37785;SDS011;23625;48.784;9.336;2023-08-31T03:13:33;13.88;;;4.38;;
37785;SDS011;23625;48.784;9.336;2023-08-31T03:15:59;5.25;;;2.63;;
37785;SDS011;23625;48.784;9.336;2023-08-31T03:18:25;5.32;;;2.55;;
37785;SDS011;23625;48.784;9.336;2023-08-31T03:20:51;6.50;;;2.58;;
37785;SDS011;23625;48.784;9.336;2023-08-31T03:23:17;5.55;;;2.55;;
37785;SDS011;23625;48.784;9.336;2023-08-31T03:25:42;5.75;;;2.50;;
37785;SDS011;23625;48.784;9.336;2023-08-31T03:28:08;13.10;;;3.55;;
37785;SDS011;23625;48.784;9.336;2023-08-31T03:30:34;4.47;;;2.60;;
37785;SDS011;23625;48.784;9.336;2023-08-31T03:33:00;6.63;;;2.60;;
37785;SDS011;23625;48.784;9.336;2023-08-31T03:35:27;13.10;;;3.35;;
37785;SDS011;23625;48.784;9.336;2023-08-31T03:37:53;4.00;;;2.55;;
37785;SDS011;23625;48.784;9.336;2023-08-31T03:40:19;6.35;;;2.97;;
37785;SDS011;23625;48.784;9.336;2023-08-31T03:42:45;8.10;;;3.03;;
37785;SDS011;23625;48.784;9.336;2023-08-31T03:45:10;8.25;;;2.72;;
37785;SDS011;23625;48.784;9.336;2023-08-31T03:47:36;3.85;;;2.70;;
37785;SDS011;23625;48.784;9.336;2023-08-31T03:50:02;8.98;;;2.90;;
37785;SDS011;23625;48.784;9.336;2023-08-31T03:52:29;6.70;;;3.05;;
37785;SDS011;23625;48.784;9.336;2023-08-31T03:54:54;6.35;;;2.72;;
37785;SDS011;23625;48.784;9.336;2023-08-31T03:57:20;5.80;;;2.83;;
37785;SDS011;23625;48.784;9.336;2023-08-31T03:59:46;5.63;;;2.72;;
37785;SDS011;23625;48.784;9.336;2023-08-31T04:02:11;7.40;;;2.53;;
37785;SDS011;23625;48.784;9.336;2023-08-31T04:04:37;7.82;;;2.97;;
37785;SDS011;23625;48.784;9.336;2023-08-31T04:07:02;10.55;;;3.40;;
37785;SDS011;23625;48.784;9.336;2023-08-31T04:09:28;9.02;;;2.90;;
37785;SDS011;23625;48.784;9.336;2023-08-31T04:11:55;6.63;;;3.10;;
37785;SDS011;23625;48.784;9.336;2023-08-31T04:14:20;7.05;;;2.83;;
37785;SDS011;23625;48.784;9.336;2023-08-31T04:16:46;4.32;;;2.42;;
37785;SDS011;23625;48.784;9.336;2023-08-31T04:19:14;9.10;;;3.33;;
37785;SDS011;23625;48.784;9.336;2023-08-31T04:21:40;6.20;;;3.00;;
37785;SDS011;23625;48.784;9.336;2023-08-31T04:24:05;6.88;;;3.30;;
37785;SDS011;23625;48.784;9.336;2023-08-31T04:26:31;8.32;;;3.17;;
37785;SDS011;23625;48.784;9.336;2023-08-31T04:28:57;4.13;;;3.03;;
37785;SDS011;23625;48.784;9.336;2023-08-31T04:31:22;8.35;;;2.90;;
37785;SDS011;23625;48.784;9.336;2023-08-31T04:33:49;11.43;;;3.22;;
37785;SDS011;23625;48.784;9.336;2023-08-31T04:36:18;6.80;;;2.92;;
37785;SDS011;23625;48.784;9.336;2023-08-31T04:38:48;4.20;;;2.88;;
37785;SDS011;23625;48.784;9.336;2023-08-31T04:41:14;11.30;;;3.25;;
37785;SDS011;23625;48.784;9.336;2023-08-31T04:43:40;6.35;;;3.17;;
37785;SDS011;23625;48.784;9.336;2023-08-31T04:46:06;8.73;;;3.92;;
37785;SDS011;23625;48.784;9.336;2023-08-31T04:48:32;9.65;;;3.47;;
37785;SDS011;23625;48.784;9.336;2023-08-31T04:50:58;4.95;;;2.92;;
37785;SDS011;23625;48.784;9.336;2023-08-31T04:53:23;8.75;;;3.10;;
37785;SDS011;23625;48.784;9.336;2023-08-31T04:55:49;7.68;;;3.55;;
37785;SDS011;23625;48.784;9.336;2023-08-31T04:58:15;3.78;;;2.33;;
37785;SDS011;23625;48.784;9.336;2023-08-31T05:00:40;9.52;;;3.20;;
37785;SDS011;23625;48.784;9.336;2023-08-31T05:03:06;9.48;;;3.22;;
37785;SDS011;23625;48.784;9.336;2023-08-31T05:05:32;6.50;;;2.83;;
37785;SDS011;23625;48.784;9.336;2023-08-31T05:07:57;6.30;;;3.22;;
37785;SDS011;23625;48.784;9.336;2023-08-31T05:10:24;8.43;;;3.20;;
37785;SDS011;23625;48.784;9.336;2023-08-31T05:12:49;6.50;;;2.78;;
37785;SDS011;23625;48.784;9.336;2023-08-31T05:15:15;9.43;;;3.63;;
37785;SDS011;23625;48.784;9.336;2023-08-31T05:17:41;7.10;;;3.03;;
37785;SDS011;23625;48.784;9.336;2023-08-31T05:20:07;7.43;;;2.90;;
37785;SDS011;23625;48.784;9.336;2023-08-31T05:22:34;6.75;;;3.13;;
37785;SDS011;23625;48.784;9.336;2023-08-31T05:25:00;7.05;;;3.00;;
37785;SDS011;23625;48.784;9.336;2023-08-31T05:27:26;8.52;;;3.15;;
37785;SDS011;23625;48.784;9.336;2023-08-31T05:29:51;9.48;;;2.90;;
37785;SDS011;23625;48.784;9.336;2023-08-31T05:32:17;13.23;;;3.15;;
37785;SDS011;23625;48.784;9.336;2023-08-31T05:34:43;7.63;;;3.00;;
37785;SDS011;23625;48.784;9.336;2023-08-31T05:37:08;6.10;;;2.70;;
37785;SDS011;23625;48.784;9.336;2023-08-31T05:39:34;9.75;;;3.63;;
37785;SDS011;23625;48.784;9.336;2023-08-31T05:41:59;7.82;;;2.70;;
37785;SDS011;23625;48.784;9.336;2023-08-31T05:44:25;9.52;;;3.58;;
37785;SDS011;23625;48.784;9.336;2023-08-31T05:46:51;9.15;;;3.22;;
37785;SDS011;23625;48.784;9.336;2023-08-31T05:49:17;7.95;;;3.10;;
37785;SDS011;23625;48.784;9.336;2023-08-31T05:51:42;7.13;;;3.70;;
37785;SDS011;23625;48.784;9.336;2023-08-31T05:54:08;6.43;;;3.25;;
37785;SDS011;23625;48.784;9.336;2023-08-31T05:59:04;7.03;;;2.85;;
37785;SDS011;23625;48.784;9.336;2023-08-31T06:01:30;6.07;;;2.80;;
37785;SDS011;23625;48.784;9.336;2023-08-31T06:03:56;7.90;;;3.15;;
37785;SDS011;23625;48.784;9.336;2023-08-31T06:06:21;7.95;;;3.20;;
37785;SDS011;23625;48.784;9.336;2023-08-31T06:08:47;10.00;;;3.25;;
37785;SDS011;23625;48.784;9.336;2023-08-31T06:11:13;5.43;;;3.08;;
37785;SDS011;23625;48.784;9.336;2023-08-31T06:13:38;6.00;;;3.10;;
37785;SDS011;23625;48.784;9.336;2023-08-31T06:16:05;7.63;;;3.40;;
37785;SDS011;23625;48.784;9.336;2023-08-31T06:18:30;4.57;;;3.03;;
37785;SDS011;23625;48.784;9.336;2023-08-31T06:20:56;9.32;;;3.20;;
37785;SDS011;23625;48.784;9.336;2023-08-31T06:23:21;7.90;;;2.97;;
37785;SDS011;23625;48.784;9.336;2023-08-31T06:25:47;10.07;;;3.08;;
37785;SDS011;23625;48.784;9.336;2023-08-31T06:28:13;7.10;;;3.05;;
37785;SDS011;23625;48.784;9.336;2023-08-31T06:30:38;8.63;;;3.33;;
37785;SDS011;23625;48.784;9.336;2023-08-31T06:33:05;9.45;;;3.00;;
37785;SDS011;23625;48.784;9.336;2023-08-31T06:35:31;8.48;;;3.20;;
37785;SDS011;23625;48.784;9.336;2023-08-31T06:37:56;6.95;;;2.50;;
37785;SDS011;23625;48.784;9.336;2023-08-31T06:40:22;5.45;;;2.78;;
37785;SDS011;23625;48.784;9.336;2023-08-31T06:42:48;8.50;;;3.17;;
37785;SDS011;23625;48.784;9.336;2023-08-31T06:45:14;18.88;;;3.40;;
37785;SDS011;23625;48.784;9.336;2023-08-31T06:47:40;11.57;;;3.13;;
37785;SDS011;23625;48.784;9.336;2023-08-31T06:50:05;4.68;;;2.85;;
37785;SDS011;23625;48.784;9.336;2023-08-31T06:52:31;8.10;;;2.83;;
37785;SDS011;23625;48.784;9.336;2023-08-31T06:54:57;5.38;;;2.13;;
37785;SDS011;23625;48.784;9.336;2023-08-31T06:57:23;9.55;;;2.75;;
37785;SDS011;23625;48.784;9.336;2023-08-31T06:59:49;7.03;;;2.75;;
37785;SDS011;23625;48.784;9.336;2023-08-31T07:02:15;14.52;;;3.38;;
37785;SDS011;23625;48.784;9.336;2023-08-31T07:04:41;10.65;;;2.40;;
37785;SDS011;23625;48.784;9.336;2023-08-31T07:07:07;9.15;;;2.97;;
37785;SDS011;23625;48.784;9.336;2023-08-31T07:09:33;9.25;;;2.72;;
37785;SDS011;23625;48.784;9.336;2023-08-31T07:11:59;7.63;;;2.60;;
37785;SDS011;23625;48.784;9.336;2023-08-31T07:14:26;8.98;;;2.88;;
37785;SDS011;23625;48.784;9.336;2023-08-31T07:16:52;8.77;;;2.72;;
37785;SDS011;23625;48.784;9.336;2023-08-31T07:19:17;13.07;;;2.80;;
37785;SDS011;23625;48.784;9.336;2023-08-31T07:21:43;9.00;;;2.40;;
37785;SDS011;23625;48.784;9.336;2023-08-31T07:24:09;8.70;;;2.33;;
37785;SDS011;23625;48.784;9.336;2023-08-31T07:26:34;8.27;;;2.42;;
37785;SDS011;23625;48.784;9.336;2023-08-31T07:29:00;4.55;;;2.30;;
37785;SDS011;23625;48.784;9.336;2023-08-31T07:31:29;7.45;;;2.75;;
37785;SDS011;23625;48.784;9.336;2023-08-31T07:33:55;6.30;;;2.15;;
37785;SDS011;23625;48.784;9.336;2023-08-31T07:36:21;7.10;;;3.10;;
37785;SDS011;23625;48.784;9.336;2023-08-31T07:38:46;9.15;;;2.20;;
37785;SDS011;23625;48.784;9.336;2023-08-31T07:41:12;8.23;;;2.25;;
37785;SDS011;23625;48.784;9.336;2023-08-31T07:43:37;7.95;;;2.22;;
37785;SDS011;23625;48.784;9.336;2023-08-31T07:46:03;5.50;;;2.17;;
37785;SDS011;23625;48.784;9.336;2023-08-31T07:48:29;7.53;;;2.28;;
37785;SDS011;23625;48.784;9.336;2023-08-31T07:50:54;5.55;;;2.05;;
37785;SDS011;23625;48.784;9.336;2023-08-31T07:53:20;9.57;;;2.80;;
37785;SDS011;23625;48.784;9.336;2023-08-31T07:55:55;9.82;;;2.30;;
37785;SDS011;23625;48.784;9.336;2023-08-31T07:58:24;7.97;;;2.03;;
37785;SDS011;23625;48.784;9.336;2023-08-31T08:00:54;6.35;;;2.38;;
37785;SDS011;23625;48.784;9.336;2023-08-31T08:03:21;6.35;;;3.15;;
37785;SDS011;23625;48.784;9.336;2023-08-31T08:05:47;7.88;;;2.67;;
37785;SDS011;23625;48.784;9.336;2023-08-31T08:08:12;5.85;;;2.67;;
37785;SDS011;23625;48.784;9.336;2023-08-31T08:10:38;7.47;;;2.53;;
37785;SDS011;23625;48.784;9.336;2023-08-31T08:13:04;6.60;;;2.75;;
37785;SDS011;23625;48.784;9.336;2023-08-31T08:15:30;6.45;;;2.05;;
37785;SDS011;23625;48.784;9.336;2023-08-31T08:17:56;6.63;;;2.47;;
37785;SDS011;23625;48.784;9.336;2023-08-31T08:20:22;9.70;;;2.60;;
37785;SDS011;23625;48.784;9.336;2023-08-31T08:22:48;11.18;;;2.65;;
37785;SDS011;23625;48.784;9.336;2023-08-31T08:25:17;5.43;;;2.17;;
37785;SDS011;23625;48.784;9.336;2023-08-31T08:27:46;6.15;;;2.40;;
37785;SDS011;23625;48.784;9.336;2023-08-31T08:30:13;6.72;;;1.98;;
37785;SDS011;23625;48.784;9.336;2023-08-31T08:32:40;5.22;;;1.70;;
37785;SDS011;23625;48.784;9.336;2023-08-31T08:35:06;4.55;;;1.90;;
37785;SDS011;23625;48.784;9.336;2023-08-31T08:37:32;3.17;;;1.60;;
37785;SDS011;23625;48.784;9.336;2023-08-31T08:39:58;10.45;;;3.30;;
37785;SDS011;23625;48.784;9.336;2023-08-31T08:42:24;8.95;;;3.63;;
37785;SDS011;23625;48.784;9.336;2023-08-31T08:44:50;8.60;;;3.22;;
37785;SDS011;23625;48.784;9.336;2023-08-31T08:47:20;12.88;;;3.83;;
37785;SDS011;23625;48.784;9.336;2023-08-31T08:49:47;7.15;;;2.50;;
37785;SDS011;23625;48.784;9.336;2023-08-31T08:52:13;8.90;;;2.90;;
37785;SDS011;23625;48.784;9.336;2023-08-31T08:54:42;12.75;;;2.65;;
37785;SDS011;23625;48.784;9.336;2023-08-31T08:57:09;8.57;;;2.40;;
37785;SDS011;23625;48.784;9.336;2023-08-31T08:59:35;9.48;;;1.83;;
37785;SDS011;23625;48.784;9.336;2023-08-31T09:02:00;5.95;;;1.98;;
37785;SDS011;23625;48.784;9.336;2023-08-31T09:04:26;5.18;;;1.80;;
37785;SDS011;23625;48.784;9.336;2023-08-31T09:06:55;4.75;;;1.85;;
37785;SDS011;23625;48.784;9.336;2023-08-31T09:09:20;5.93;;;1.60;;
37785;SDS011;23625;48.784;9.336;2023-08-31T09:11:46;7.10;;;1.88;;
37785;SDS011;23625;48.784;9.336;2023-08-31T09:14:15;5.53;;;1.90;;
37785;SDS011;23625;48.784;9.336;2023-08-31T09:16:45;4.78;;;1.95;;
37785;SDS011;23625;48.784;9.336;2023-08-31T09:21:44;4.65;;;1.60;;
37785;SDS011;23625;48.784;9.336;2023-08-31T09:24:11;11.25;;;2.33;;
37785;SDS011;23625;48.784;9.336;2023-08-31T09:26:39;5.13;;;1.90;;
37785;SDS011;23625;48.784;9.336;2023-08-31T09:29:08;7.85;;;2.05;;
37785;SDS011;23625;48.784;9.336;2023-08-31T09:31:34;8.38;;;1.80;;
37785;SDS011;23625;48.784;9.336;2023-08-31T09:34:00;8.13;;;2.58;;
37785;SDS011;23625;48.784;9.336;2023-08-31T09:36:26;7.63;;;2.42;;
37785;SDS011;23625;48.784;9.336;2023-08-31T09:38:56;8.98;;;2.55;;
37785;SDS011;23625;48.784;9.336;2023-08-31T09:41:22;7.13;;;1.83;;
37785;SDS011;23625;48.784;9.336;2023-08-31T09:43:48;4.07;;;2.00;;
37785;SDS011;23625;48.784;9.336;2023-08-31T09:46:14;9.90;;;1.90;;
37785;SDS011;23625;48.784;9.336;2023-08-31T09:48:40;4.10;;;1.60;;
37785;SDS011;23625;48.784;9.336;2023-08-31T09:51:07;2.95;;;1.83;;
37785;SDS011;23625;48.784;9.336;2023-08-31T09:53:35;9.50;;;1.77;;
37785;SDS011;23625;48.784;9.336;2023-08-31T09:56:02;6.78;;;2.45;;
37785;SDS011;23625;48.784;9.336;2023-08-31T09:58:30;6.38;;;1.98;;
37785;SDS011;23625;48.784;9.336;2023-08-31T10:00:56;6.43;;;2.15;;
37785;SDS011;23625;48.784;9.336;2023-08-31T10:03:22;5.18;;;1.98;;
37785;SDS011;23625;48.784;9.336;2023-08-31T10:05:48;4.95;;;1.80;;
37785;SDS011;23625;48.784;9.336;2023-08-31T10:08:15;6.22;;;1.90;;
37785;SDS011;23625;48.784;9.336;2023-08-31T10:10:41;3.10;;;1.60;;
37785;SDS011;23625;48.784;9.336;2023-08-31T10:13:07;6.28;;;2.72;;
37785;SDS011;23625;48.784;9.336;2023-08-31T10:15:34;4.03;;;1.58;;
37785;SDS011;23625;48.784;9.336;2023-08-31T10:18:01;4.43;;;1.70;;
37785;SDS011;23625;48.784;9.336;2023-08-31T10:20:28;9.60;;;1.90;;
37785;SDS011;23625;48.784;9.336;2023-08-31T10:22:56;5.40;;;1.83;;
37785;SDS011;23625;48.784;9.336;2023-08-31T10:25:23;5.72;;;1.98;;
37785;SDS011;23625;48.784;9.336;2023-08-31T10:27:48;8.68;;;1.75;;
37785;SDS011;23625;48.784;9.336;2023-08-31T10:30:24;7.55;;;2.03;;
37785;SDS011;23625;48.784;9.336;2023-08-31T10:38:32;5.10;;;2.55;;
37785;SDS011;23625;48.784;9.336;2023-08-31T10:46:46;7.80;;;1.98;;
37785;SDS011;23625;48.784;9.336;2023-08-31T10:49:13;8.75;;;2.08;;
37785;SDS011;23625;48.784;9.336;2023-08-31T10:54:13;4.70;;;2.00;;
37785;SDS011;23625;48.784;9.336;2023-08-31T10:59:26;4.68;;;1.67;;
37785;SDS011;23625;48.784;9.336;2023-08-31T11:02:07;9.32;;;2.60;;
37785;SDS011;23625;48.784;9.336;2023-08-31T11:04:52;8.90;;;2.60;;
37785;SDS011;23625;48.784;9.336;2023-08-31T11:07:19;6.78;;;2.25;;
37785;SDS011;23625;48.784;9.336;2023-08-31T11:09:48;5.55;;;1.80;;
37785;SDS011;23625;48.784;9.336;2023-08-31T11:12:14;8.73;;;2.20;;
37785;SDS011;23625;48.784;9.336;2023-08-31T11:14:40;7.50;;;2.42;;
37785;SDS011;23625;48.784;9.336;2023-08-31T11:17:06;6.13;;;2.08;;
37785;SDS011;23625;48.784;9.336;2023-08-31T11:19:32;12.25;;;2.10;;
37785;SDS011;23625;48.784;9.336;2023-08-31T11:22:02;5.82;;;2.13;;
37785;SDS011;23625;48.784;9.336;2023-08-31T11:24:31;6.55;;;1.80;;
37785;SDS011;23625;48.784;9.336;2023-08-31T11:26:58;5.78;;;2.13;;
37785;SDS011;23625;48.784;9.336;2023-08-31T11:29:24;7.57;;;2.20;;
37785;SDS011;23625;48.784;9.336;2023-08-31T11:31:49;8.57;;;2.10;;
37785;SDS011;23625;48.784;9.336;2023-08-31T11:34:16;6.80;;;2.05;;
37785;SDS011;23625;48.784;9.336;2023-08-31T11:36:42;8.90;;;2.22;;
37785;SDS011;23625;48.784;9.336;2023-08-31T11:39:09;7.95;;;2.33;;
37785;SDS011;23625;48.784;9.336;2023-08-31T11:41:35;7.50;;;2.35;;
37785;SDS011;23625;48.784;9.336;2023-08-31T11:44:07;7.15;;;2.10;;
37785;SDS011;23625;48.784;9.336;2023-08-31T11:46:34;8.95;;;1.95;;
37785;SDS011;23625;48.784;9.336;2023-08-31T11:49:01;4.35;;;2.08;;
37785;SDS011;23625;48.784;9.336;2023-08-31T11:51:29;6.50;;;2.17;;
37785;SDS011;23625;48.784;9.336;2023-08-31T11:53:55;9.18;;;2.10;;
37785;SDS011;23625;48.784;9.336;2023-08-31T11:56:23;7.63;;;2.47;;
37785;SDS011;23625;48.784;9.336;2023-08-31T11:58:50;10.75;;;2.33;;
37785;SDS011;23625;48.784;9.336;2023-08-31T12:01:21;7.95;;;2.20;;
37785;SDS011;23625;48.784;9.336;2023-08-31T12:03:48;8.85;;;2.28;;
37785;SDS011;23625;48.784;9.336;2023-08-31T12:06:15;7.20;;;2.35;;
37785;SDS011;23625;48.784;9.336;2023-08-31T12:08:43;9.48;;;2.13;;
37785;SDS011;23625;48.784;9.336;2023-08-31T12:11:09;8.52;;;2.00;;
37785;SDS011;23625;48.784;9.336;2023-08-31T12:13:34;7.18;;;2.58;;
37785;SDS011;23625;48.784;9.336;2023-08-31T12:16:00;7.22;;;1.92;;
37785;SDS011;23625;48.784;9.336;2023-08-31T12:18:29;8.93;;;2.13;;
37785;SDS011;23625;48.784;9.336;2023-08-31T12:20:56;9.45;;;2.20;;
37785;SDS011;23625;48.784;9.336;2023-08-31T12:23:23;11.85;;;2.58;;
37785;SDS011;23625;48.784;9.336;2023-08-31T12:25:49;7.65;;;2.53;;
37785;SDS011;23625;48.784;9.336;2023-08-31T12:28:16;8.85;;;2.25;;
37785;SDS011;23625;48.784;9.336;2023-08-31T12:30:46;4.80;;;2.08;;
37785;SDS011;23625;48.784;9.336;2023-08-31T12:33:21;6.70;;;2.53;;
37785;SDS011;23625;48.784;9.336;2023-08-31T12:35:47;9.05;;;2.38;;
37785;SDS011;23625;48.784;9.336;2023-08-31T12:38:13;6.82;;;2.63;;
37785;SDS011;23625;48.784;9.336;2023-08-31T12:40:39;6.22;;;2.40;;
37785;SDS011;23625;48.784;9.336;2023-08-31T12:43:05;7.10;;;2.00;;
37785;SDS011;23625;48.784;9.336;2023-08-31T12:45:31;15.55;;;2.83;;
37785;SDS011;23625;48.784;9.336;2023-08-31T12:47:57;8.55;;;2.13;;
37785;SDS011;23625;48.784;9.336;2023-08-31T12:50:23;6.38;;;1.65;;
37785;SDS011;23625;48.784;9.336;2023-08-31T12:52:48;4.38;;;1.80;;
37785;SDS011;23625;48.784;9.336;2023-08-31T12:55:14;8.30;;;2.17;;
37785;SDS011;23625;48.784;9.336;2023-08-31T12:57:43;8.30;;;2.53;;
37785;SDS011;23625;48.784;9.336;2023-08-31T13:00:09;8.23;;;2.78;;
37785;SDS011;23625;48.784;9.336;2023-08-31T13:02:39;5.72;;;2.28;;
37785;SDS011;23625;48.784;9.336;2023-08-31T13:05:05;9.00;;;2.22;;
37785;SDS011;23625;48.784;9.336;2023-08-31T13:07:32;5.20;;;2.25;;
37785;SDS011;23625;48.784;9.336;2023-08-31T13:10:02;8.23;;;2.40;;
37785;SDS011;23625;48.784;9.336;2023-08-31T13:12:31;7.35;;;3.13;;
37785;SDS011;23625;48.784;9.336;2023-08-31T13:15:00;3.47;;;1.83;;
37785;SDS011;23625;48.784;9.336;2023-08-31T13:17:26;5.47;;;1.90;;
37785;SDS011;23625;48.784;9.336;2023-08-31T13:19:55;7.43;;;2.03;;
37785;SDS011;23625;48.784;9.336;2023-08-31T13:22:22;6.53;;;1.80;;
37785;SDS011;23625;48.784;9.336;2023-08-31T13:24:48;10.18;;;2.20;;
37785;SDS011;23625;48.784;9.336;2023-08-31T13:27:14;6.20;;;1.80;;
37785;SDS011;23625;48.784;9.336;2023-08-31T13:29:40;5.55;;;1.85;;
37785;SDS011;23625;48.784;9.336;2023-08-31T13:32:06;10.10;;;2.42;;
37785;SDS011;23625;48.784;9.336;2023-08-31T13:34:32;10.35;;;2.13;;
37785;SDS011;23625;48.784;9.336;2023-08-31T13:36:58;6.18;;;2.20;;
37785;SDS011;23625;48.784;9.336;2023-08-31T13:39:25;5.32;;;1.90;;
37785;SDS011;23625;48.784;9.336;2023-08-31T13:41:51;7.45;;;3.40;;
37785;SDS011;23625;48.784;9.336;2023-08-31T13:44:17;5.68;;;2.30;;
37785;SDS011;23625;48.784;9.336;2023-08-31T13:46:45;5.10;;;2.30;;
37785;SDS011;23625;48.784;9.336;2023-08-31T13:49:11;6.50;;;2.58;;
37785;SDS011;23625;48.784;9.336;2023-08-31T13:51:36;15.02;;;2.47;;
37785;SDS011;23625;48.784;9.336;2023-08-31T13:54:02;5.43;;;2.45;;
37785;SDS011;23625;48.784;9.336;2023-08-31T13:56:32;8.10;;;2.33;;
37785;SDS011;23625;48.784;9.336;2023-08-31T13:58:58;6.50;;;2.20;;
37785;SDS011;23625;48.784;9.336;2023-08-31T14:01:24;12.63;;;2.13;;
37785;SDS011;23625;48.784;9.336;2023-08-31T14:03:50;7.20;;;2.25;;
37785;SDS011;23625;48.784;9.336;2023-08-31T14:06:15;6.38;;;2.38;;
37785;SDS011;23625;48.784;9.336;2023-08-31T14:08:41;4.10;;;1.52;;
37785;SDS011;23625;48.784;9.336;2023-08-31T14:11:07;7.88;;;2.03;;
37785;SDS011;23625;48.784;9.336;2023-08-31T14:13:32;8.25;;;1.80;;
37785;SDS011;23625;48.784;9.336;2023-08-31T14:15:59;9.25;;;1.90;;
37785;SDS011;23625;48.784;9.336;2023-08-31T14:18:28;6.80;;;1.80;;
37785;SDS011;23625;48.784;9.336;2023-08-31T14:20:55;6.60;;;2.05;;
37785;SDS011;23625;48.784;9.336;2023-08-31T14:23:22;6.75;;;2.08;;
37785;SDS011;23625;48.784;9.336;2023-08-31T14:25:48;6.65;;;1.85;;
37785;SDS011;23625;48.784;9.336;2023-08-31T14:28:14;8.13;;;2.20;;
37785;SDS011;23625;48.784;9.336;2023-08-31T14:30:39;4.18;;;1.63;;
37785;SDS011;23625;48.784;9.336;2023-08-31T14:33:05;9.35;;;2.65;;
37785;SDS011;23625;48.784;9.336;2023-08-31T14:35:30;7.55;;;1.73;;
37785;SDS011;23625;48.784;9.336;2023-08-31T14:37:56;6.60;;;1.98;;
37785;SDS011;23625;48.784;9.336;2023-08-31T14:40:23;11.07;;;2.88;;
37785;SDS011;23625;48.784;9.336;2023-08-31T14:42:49;7.55;;;2.30;;
37785;SDS011;23625;48.784;9.336;2023-08-31T14:45:14;6.63;;;2.75;;
37785;SDS011;23625;48.784;9.336;2023-08-31T14:47:40;7.18;;;2.13;;
37785;SDS011;23625;48.784;9.336;2023-08-31T14:50:07;6.95;;;2.40;;
37785;SDS011;23625;48.784;9.336;2023-08-31T14:52:33;9.30;;;2.17;;
37785;SDS011;23625;48.784;9.336;2023-08-31T14:54:59;5.22;;;2.15;;
37785;SDS011;23625;48.784;9.336;2023-08-31T14:57:25;8.68;;;1.92;;
37785;SDS011;23625;48.784;9.336;2023-08-31T14:59:50;8.18;;;2.50;;
37785;SDS011;23625;48.784;9.336;2023-08-31T15:02:19;9.75;;;2.08;;
37785;SDS011;23625;48.784;9.336;2023-08-31T15:04:47;8.30;;;2.25;;
37785;SDS011;23625;48.784;9.336;2023-08-31T15:07:16;8.40;;;2.30;;
37785;SDS011;23625;48.784;9.336;2023-08-31T15:09:42;5.35;;;2.38;;
37785;SDS011;23625;48.784;9.336;2023-08-31T15:12:08;4.95;;;1.92;;